KDAA/DAA METAR and TAF weather

Enter ICAO airport designator
Station Type Date Time Source
KDAA METAR 2020/01/28 04:56 UTC NOAA

KDAA 280456Z AUTO 30011KT 10SM OVC065 05/M02 A2986 RMK AO2 SLP115 T00541020 401031019 $


Station Type Date Time Source
KDAA Decoded METAR 2020/01/28 04:56 UTC NOAA

Fort Belvoir, VA, United States (KDAA) 38-43N 077-11W
Jan 27, 2020 - 11:56 PM EST / 2020.01.28 0456 UTC
Wind: from the WNW (300 degrees) at 13 MPH (11 KT):0
Visibility: 10 mile(s):0
Sky conditions: overcast
Temperature: 41.7 F (5.4 C)
Dew Point: 28.4 F (-2.0 C)
Relative Humidity: 58%
Pressure (altimeter): 29.86 in. Hg (1011 hPa)
ob: KDAA 280456Z AUTO 30011KT 10SM OVC065 05/M02 A2986 RMK AO2 SLP115 T00541020 401031019
cycle: 5

Station Type Date Time Source
KDAA TAF 2020/01/28 02:25 UTC NOAA

TAF KDAA 280200Z 2802/2908 32009KT 9999 SCT065 QNH2983INS
BECMG 2802/2804 32006KT 9999 BKN030 620304 QNH2985INS
BECMG 2814/2815 31010G15KT 9999 BKN030 620302 QNH2991INS
BECMG 2820/2821 32009KT 9999 SCT030 QNH2993INS TX07/2820Z TN01/2811Z LAST NO
AMDS AFT 2802 NEXT 2810

Example: see airport list